Time;durP1;ratioP1;P1;durP2;ratioP2;P2;SDS_P1;SDS_P2;PMS_P1;PMS_P2;Temp;Humidity;BMP_temperature;BMP_pressure;BME280_temperature;BME280_humidity;BME280_pressure;Samples;Min_cycle;Max_cycle;Signal;HPM_P1;HPM_P2
2022/11/22 00:00:56;;;;;;;46.25;25.42;;;;;;;9.00;100.00;99323.09;4968716;28;20046;-70
2022/11/22 00:03:24;;;;;;;44.47;24.83;;;;;;;9.04;100.00;99317.84;4971611;28;20050;-70
2022/11/22 00:05:52;;;;;;;47.28;24.85;;;;;;;8.99;100.00;99310.53;4973001;28;20059;-70
2022/11/22 00:08:20;;;;;;;41.38;23.33;;;;;;;8.96;100.00;99300.25;4972390;28;20043;-70
2022/11/22 00:10:49;;;;;;;44.42;23.65;;;;;;;8.99;100.00;99302.38;4973489;28;20043;-70
2022/11/22 00:13:18;;;;;;;41.53;21.67;;;;;;;9.02;100.00;99293.59;4976017;28;20047;-70
2022/11/22 00:15:58;;;;;;;41.25;22.08;;;;;;;8.94;100.00;99275.19;4976441;28;20047;-70
2022/11/22 00:18:27;;;;;;;42.47;23.40;;;;;;;9.02;100.00;99271.75;4975874;28;20516;-70
2022/11/22 00:20:55;;;;;;;44.25;22.90;;;;;;;9.14;100.00;99273.97;4974389;28;20050;-70
2022/11/22 00:23:23;;;;;;;37.58;22.35;;;;;;;9.16;100.00;99270.94;4974980;28;20490;-70
2022/11/22 00:25:51;;;;;;;40.58;22.27;;;;;;;9.17;100.00;99258.91;4976285;28;20488;-70
2022/11/22 00:28:19;;;;;;;46.97;25.80;;;;;;;9.12;100.00;99259.84;4976161;28;20062;-70
2022/11/22 00:30:47;;;;;;;43.65;23.75;;;;;;;9.12;100.00;99260.66;4975726;28;20039;-70
2022/11/22 00:33:15;;;;;;;39.35;21.90;;;;;;;9.06;100.00;99250.94;4976053;28;20373;-70
2022/11/22 00:35:45;;;;;;;39.58;23.52;;;;;;;9.04;100.00;99246.91;4976060;28;20045;-70
2022/11/22 00:38:13;;;;;;;43.30;24.17;;;;;;;9.10;100.00;99246.47;4975428;28;20073;-70
2022/11/22 00:40:43;;;;;;;45.65;23.05;;;;;;;9.13;100.00;99237.69;4974917;28;20043;-70
2022/11/22 00:43:11;;;;;;;26.85;14.77;;;;;;;9.04;98.27;99225.88;4975980;28;20398;-70
2022/11/22 00:45:43;;;;;;;35.85;19.63;;;;;;;9.19;100.00;99222.03;4975409;28;20047;-69
2022/11/22 00:48:11;;;;;;;33.60;17.83;;;;;;;9.16;100.00;99221.81;4973935;28;20418;-70
2022/11/22 00:50:39;;;;;;;25.00;12.35;;;;;;;9.22;98.03;99220.59;4959361;28;20047;-70
2022/11/22 00:53:07;;;;;;;17.35;10.73;;;;;;;9.31;95.91;99202.41;4975212;28;20054;-69
2022/11/22 00:55:35;;;;;;;16.08;9.10;;;;;;;9.35;95.32;99192.50;4975748;28;20398;-70
2022/11/22 00:58:03;;;;;;;16.75;9.27;;;;;;;9.34;95.54;99190.88;4975697;28;20054;-70
2022/11/22 01:00:31;;;;;;;15.05;9.35;;;;;;;9.51;94.84;99194.88;4974998;28;20509;-70
2022/11/22 01:02:59;;;;;;;17.00;9.02;;;;;;;9.53;96.22;99179.81;4975595;28;20058;-70
2022/11/22 01:05:27;;;;;;;12.20;8.50;;;;;;;9.37;96.74;99173.06;4974921;28;20050;-70
2022/11/22 01:07:55;;;;;;;13.77;7.82;;;;;;;9.35;97.33;99169.84;4974934;28;20058;-70
2022/11/22 01:10:23;;;;;;;12.40;8.02;;;;;;;9.27;97.10;99152.25;4972985;28;20065;-70
2022/11/22 01:12:51;;;;;;;11.10;7.15;;;;;;;9.33;95.93;99148.28;4969636;28;20141;-70
2022/11/22 01:15:19;;;;;;;13.10;6.85;;;;;;;9.37;95.73;99143.84;4956011;29;20047;-69
2022/11/22 01:17:46;;;;;;;8.15;4.97;;;;;;;9.44;96.33;99135.25;4954841;29;20050;-70
2022/11/22 01:20:15;;;;;;;20.05;11.20;;;;;;;9.40;96.83;99145.94;4955922;29;20047;-70
2022/11/22 01:22:42;;;;;;;22.95;12.45;;;;;;;9.35;97.47;99148.00;4987893;28;20050;-70
2022/11/22 01:25:10;;;;;;;22.13;11.13;;;;;;;9.39;98.56;99133.41;4975307;28;20406;-70
2022/11/22 01:27:38;;;;;;;15.23;8.40;;;;;;;9.26;97.30;99129.63;4974360;28;20054;-70
2022/11/22 01:30:06;;;;;;;11.50;6.35;;;;;;;9.14;96.90;99119.22;4973916;28;20054;-70
2022/11/22 01:32:34;;;;;;;7.40;4.93;;;;;;;9.24;95.97;99099.09;4972431;28;20050;-69
2022/11/22 01:35:04;;;;;;;8.20;4.95;;;;;;;9.23;95.60;99097.47;4974619;28;20051;-70
2022/11/22 01:37:32;;;;;;;6.57;4.13;;;;;;;9.29;95.61;99098.16;4973409;28;20070;-70
2022/11/22 01:40:00;;;;;;;4.72;3.63;;;;;;;9.50;93.75;99101.25;4955634;29;20047;-70
2022/11/22 01:42:54;;;;;;;7.07;4.13;;;;;;;9.55;94.06;99083.91;4955795;28;20058;-70
2022/11/22 01:45:48;;;;;;;8.13;3.70;;;;;;;9.63;93.02;99076.91;4973568;28;20051;-70
2022/11/22 01:48:50;;;;;;;4.67;3.17;;;;;;;9.51;94.74;99069.25;4974763;28;20047;-70
2022/11/22 01:51:22;;;;;;;5.55;3.78;;;;;;;9.69;94.01;99056.56;4974092;28;20050;-70
2022/11/22 01:53:53;;;;;;;6.55;3.83;;;;;;;9.63;93.77;99050.38;4974401;28;20513;-70
2022/11/22 01:56:23;;;;;;;2.85;2.50;;;;;;;9.60;94.33;99040.09;4974683;28;20414;-70
2022/11/22 01:58:57;;;;;;;2.72;2.30;;;;;;;9.58;94.22;99039.59;4974444;28;20058;-70
2022/11/22 02:01:27;;;;;;;3.58;2.40;;;;;;;9.63;95.14;99027.75;4974398;28;20042;-70
2022/11/22 02:03:58;;;;;;;2.95;1.75;;;;;;;9.75;94.88;99025.25;4969380;28;20047;-70
2022/11/22 02:06:51;;;;;;;2.10;1.23;;;;;;;9.83;94.90;99004.56;4955196;29;20046;-70
2022/11/22 02:09:20;;;;;;;1.90;1.45;;;;;;;10.08;94.02;98994.06;4955200;28;20050;-69
2022/11/22 02:11:52;;;;;;;1.48;1.38;;;;;;;9.93;93.87;98990.63;4973455;28;20046;-70
2022/11/22 02:14:24;;;;;;;0.93;0.85;;;;;;;9.90;95.36;98983.06;4974369;28;20042;-70
2022/11/22 02:16:52;;;;;;;1.50;0.98;;;;;;;10.13;94.44;98969.31;4973959;28;20042;-70
2022/11/22 02:19:36;;;;;;;1.98;0.80;;;;;;;10.01;94.62;98953.50;4971515;28;20053;-70
2022/11/22 02:22:18;;;;;;;0.85;0.85;;;;;;;10.09;94.96;98946.47;4954805;29;20051;-70
2022/11/22 02:25:10;;;;;;;0.80;0.73;;;;;;;10.02;95.58;98940.66;4954679;29;20043;-70
2022/11/22 02:27:39;;;;;;;1.25;1.15;;;;;;;10.01;95.92;98931.66;4956507;28;20046;-70
2022/11/22 02:30:09;;;;;;;0.98;0.80;;;;;;;9.84;96.29;98924.22;4972956;28;20394;-70
2022/11/22 02:32:37;;;;;;;1.17;1.02;;;;;;;10.09;96.72;98924.59;4974044;28;20069;-70
2022/11/22 02:35:21;;;;;;;2.25;0.90;;;;;;;10.03;96.62;98918.47;4973380;28;20046;-70
2022/11/22 02:38:06;;;;;;;1.35;1.20;;;;;;;10.03;96.61;98904.00;4955824;28;20074;-70
2022/11/22 02:40:58;;;;;;;1.00;0.77;;;;;;;10.04;94.87;98884.56;4954498;29;20066;-70
2022/11/22 02:43:30;;;;;;;1.23;1.00;;;;;;;10.09;94.93;98889.88;4953445;29;20047;-70
2022/11/22 02:46:05;;;;;;;2.15;1.17;;;;;;;10.04;95.39;98884.56;4971018;28;20039;-70
2022/11/22 02:48:39;;;;;;;1.33;1.20;;;;;;;9.96;95.62;98874.41;4973279;28;20065;-70
2022/11/22 02:51:07;;;;;;;1.10;1.02;;;;;;;10.08;94.93;98868.34;4973792;28;20054;-70
2022/11/22 02:53:35;;;;;;;0.65;0.65;;;;;;;10.02;94.13;98875.09;4973038;28;20047;-71
2022/11/22 02:56:03;;;;;;;1.40;1.30;;;;;;;10.09;93.91;98864.47;4972646;28;20047;-70
2022/11/22 02:58:31;;;;;;;1.27;1.10;;;;;;;10.16;95.59;98851.13;4973595;28;20058;-70
2022/11/22 03:00:59;;;;;;;1.00;0.90;;;;;;;10.09;95.34;98846.13;4973551;28;20058;-70
2022/11/22 03:03:27;;;;;;;2.17;1.35;;;;;;;10.19;95.81;98841.50;4973646;28;20050;-70
2022/11/22 03:05:55;;;;;;;5.05;1.05;;;;;;;10.46;95.16;98832.19;4972986;28;20488;-70
2022/11/22 03:08:23;;;;;;;1.75;1.00;;;;;;;9.94;97.22;98820.06;4973091;28;20070;-70
2022/11/22 03:10:51;;;;;;;0.98;0.80;;;;;;;10.17;96.27;98819.94;4973458;28;20058;-70
2022/11/22 03:13:19;;;;;;;2.47;1.15;;;;;;;10.03;96.72;98817.34;4973378;28;20043;-70
2022/11/22 03:15:47;;;;;;;3.22;1.20;;;;;;;10.17;96.21;98806.28;4972845;28;20054;-71
2022/11/22 03:18:18;;;;;;;1.42;1.23;;;;;;;10.18;95.67;98799.69;4954141;29;20484;-70
2022/11/22 03:20:46;;;;;;;2.05;1.40;;;;;;;10.27;95.85;98799.69;4955165;28;20053;-70
2022/11/22 03:23:14;;;;;;;1.30;1.20;;;;;;;10.23;97.06;98790.53;4972827;28;20042;-70
2022/11/22 03:25:42;;;;;;;1.55;1.10;;;;;;;10.02;97.62;98793.88;4972706;28;20491;-70
2022/11/22 03:28:10;;;;;;;1.63;1.13;;;;;;;9.76;99.02;98772.81;4973210;28;20054;-70
2022/11/22 03:30:40;;;;;;;0.75;0.75;;;;;;;9.76;99.63;98772.81;4972114;28;20053;-70
2022/11/22 03:33:08;;;;;;;3.47;1.05;;;;;;;9.66;100.00;98752.06;4973254;28;20038;-71
2022/11/22 03:35:36;;;;;;;1.55;1.30;;;;;;;9.75;99.48;98756.72;4972594;28;20051;-70
2022/11/22 03:38:04;;;;;;;2.88;1.30;;;;;;;9.84;99.81;98754.00;4973145;28;20081;-71
2022/11/22 03:40:33;;;;;;;2.28;1.58;;;;;;;9.75;100.00;98732.97;4972631;28;20058;-71
2022/11/22 03:43:03;;;;;;;1.30;1.20;;;;;;;9.68;100.00;98735.38;4973206;28;20059;-71
2022/11/22 03:45:31;;;;;;;2.10;1.40;;;;;;;9.67;100.00;98726.34;4974293;28;20493;-71
2022/11/22 03:48:00;;;;;;;1.33;1.20;;;;;;;9.93;99.58;98720.09;4976906;28;20046;-71
2022/11/22 03:50:28;;;;;;;1.17;0.95;;;;;;;10.02;98.87;98714.63;4976957;28;20506;-71
2022/11/22 03:52:56;;;;;;;1.25;0.88;;;;;;;10.05;98.78;98711.25;4976964;28;20047;-71
2022/11/22 03:55:24;;;;;;;1.30;1.20;;;;;;;10.20;98.43;98693.56;4976797;28;20051;-71
2022/11/22 03:57:52;;;;;;;1.25;1.10;;;;;;;10.26;98.62;98702.38;4975486;28;20054;-71
2022/11/22 04:00:20;;;;;;;1.10;1.00;;;;;;;10.03;99.68;98697.09;4976754;28;20047;-71
2022/11/22 04:02:50;;;;;;;1.27;0.80;;;;;;;10.03;100.00;98707.25;4976740;28;20038;-71
2022/11/22 04:05:18;;;;;;;2.90;0.95;;;;;;;9.90;100.00;98693.44;4975036;28;20060;-71
2022/11/22 04:07:46;;;;;;;1.55;1.45;;;;;;;10.04;100.00;98697.91;4975976;28;20051;-72
2022/11/22 04:10:14;;;;;;;2.15;1.25;;;;;;;9.93;100.00;98700.97;4976488;28;20076;-71
2022/11/22 04:12:48;;;;;;;1.88;1.15;;;;;;;9.97;100.00;98703.06;4975387;28;20039;-72
2022/11/22 04:15:16;;;;;;;1.55;1.27;;;;;;;10.07;100.00;98702.75;4976377;28;20042;-73
2022/11/22 04:17:45;;;;;;;2.15;1.23;;;;;;;9.78;100.00;98696.00;4976474;28;20055;-72
2022/11/22 04:23:06;;;;;;;2.53;1.42;;;;;;;9.81;100.00;98692.63;4974622;28;20062;-73
2022/11/22 04:25:41;;;;;;;2.83;1.40;;;;;;;9.70;100.00;98694.06;4975856;28;20042;-73
2022/11/22 04:28:10;;;;;;;1.55;1.45;;;;;;;9.75;100.00;98685.72;4976214;28;20051;-72
2022/11/22 04:33:25;;;;;;;1.55;1.27;;;;;;;9.74;100.00;98684.91;4976139;28;20516;-72
2022/11/22 04:35:53;;;;;;;1.00;1.00;;;;;;;9.63;100.00;98692.59;4975430;28;20430;-72
2022/11/22 04:38:24;;;;;;;1.33;1.23;;;;;;;9.57;100.00;98682.97;4974851;28;20406;-72
2022/11/22 04:40:52;;;;;;;1.13;0.90;;;;;;;9.65;100.00;98681.38;4975851;28;20043;-72
2022/11/22 04:46:08;;;;;;;2.50;1.02;;;;;;;9.79;100.00;98681.22;4988088;28;20058;-72
2022/11/22 04:48:36;;;;;;;2.10;1.15;;;;;;;9.77;100.00;98677.97;4988311;28;20115;-72
2022/11/22 04:53:52;;;;;;;0.93;0.93;;;;;;;9.65;100.00;98679.44;4993345;28;20043;-72
2022/11/22 04:56:20;;;;;;;1.50;0.82;;;;;;;9.60;100.00;98678.78;4974282;28;20054;-73
2022/11/22 04:58:50;;;;;;;1.15;0.77;;;;;;;9.57;100.00;98673.97;4975544;28;20054;-73
2022/11/22 05:01:18;;;;;;;2.58;1.23;;;;;;;9.68;100.00;98667.09;4975516;28;20047;-73
2022/11/22 05:03:47;;;;;;;0.70;0.70;;;;;;;9.80;100.00;98672.72;4970436;28;20521;-72
2022/11/22 05:06:15;;;;;;;1.02;0.63;;;;;;;9.76;100.00;98670.91;4960853;28;20064;-73
2022/11/22 05:08:42;;;;;;;1.10;0.93;;;;;;;9.78;100.00;98657.75;4973933;28;20055;-72
2022/11/22 05:11:11;;;;;;;0.50;0.50;;;;;;;9.93;100.00;98659.97;4975516;28;20043;-73
2022/11/22 05:13:40;;;;;;;0.55;0.50;;;;;;;9.97;100.00;98651.16;4975370;28;20051;-72
2022/11/22 05:16:11;;;;;;;0.88;0.73;;;;;;;9.87;100.00;98642.16;4974840;28;20078;-72
2022/11/22 05:18:39;;;;;;;0.57;0.57;;;;;;;9.87;100.00;98655.81;4975294;28;20065;-72
2022/11/22 05:21:13;;;;;;;1.17;0.75;;;;;;;10.02;100.00;98661.94;4975032;28;20375;-72
2022/11/22 05:23:53;;;;;;;2.55;0.63;;;;;;;9.89;100.00;98664.50;4975077;28;20490;-72
2022/11/22 05:26:27;;;;;;;0.63;0.63;;;;;;;9.98;100.00;98655.50;4974701;28;20030;-72
2022/11/22 05:29:01;;;;;;;2.05;0.60;;;;;;;10.06;99.73;98644.53;4974597;28;20050;-72
2022/11/22 05:31:31;;;;;;;0.80;0.80;;;;;;;10.13;100.00;98641.34;4975206;28;20054;-73
2022/11/22 05:33:59;;;;;;;0.68;0.60;;;;;;;10.05;100.00;98644.88;4975041;28;20043;-73
2022/11/22 05:36:31;;;;;;;2.22;0.82;;;;;;;9.94;100.00;98634.25;4974422;28;20427;-73
2022/11/22 05:39:00;;;;;;;0.90;0.73;;;;;;;10.01;100.00;98632.97;4974226;28;20074;-72
2022/11/22 05:41:28;;;;;;;0.50;0.50;;;;;;;9.95;100.00;98640.53;4974680;28;20050;-73
2022/11/22 05:43:56;;;;;;;2.83;0.70;;;;;;;10.08;100.00;98627.84;4974851;28;20478;-72
2022/11/22 05:46:27;;;;;;;4.25;0.70;;;;;;;10.22;100.00;98635.84;4973875;28;20054;-73
2022/11/22 05:48:57;;;;;;;0.65;0.60;;;;;;;10.16;100.00;98632.47;4974689;28;20051;-73
2022/11/22 05:51:29;;;;;;;3.30;0.68;;;;;;;10.26;100.00;98627.78;4972086;28;20066;-73
2022/11/22 05:54:02;;;;;;;0.50;0.50;;;;;;;10.32;99.75;98621.03;4971873;28;20047;-73
2022/11/22 05:56:30;;;;;;;0.73;0.43;;;;;;;10.38;100.00;98625.19;4971415;28;20050;-73
2022/11/22 05:59:01;;;;;;;0.47;0.47;;;;;;;10.18;100.00;98613.78;4970673;28;20047;-73
2022/11/22 06:01:32;;;;;;;1.30;0.63;;;;;;;10.27;99.80;98610.25;4969025;28;20486;-72
2022/11/22 06:04:01;;;;;;;3.08;0.50;;;;;;;10.26;99.57;98612.19;4973250;28;20039;-73
2022/11/22 06:06:29;;;;;;;0.45;0.45;;;;;;;10.13;100.00;98603.06;4974361;28;20055;-73
2022/11/22 06:08:58;;;;;;;2.28;0.57;;;;;;;10.20;99.89;98597.91;4970934;28;20043;-72
2022/11/22 06:11:27;;;;;;;0.35;0.35;;;;;;;10.27;99.98;98593.84;4970411;28;20035;-73
2022/11/22 06:14:02;;;;;;;0.10;0.10;;;;;;;10.24;99.23;98598.03;4963798;28;20418;-72
2022/11/22 06:16:30;;;;;;;1.05;0.63;;;;;;;10.30;100.00;98601.38;4971806;28;20049;-74
2022/11/22 06:18:58;;;;;;;1.08;0.50;;;;;;;10.22;100.00;98592.88;4961027;28;20047;-73
2022/11/22 06:21:27;;;;;;;1.08;0.50;;;;;;;10.32;100.00;98599.94;4954641;29;20493;-73
2022/11/22 06:23:55;;;;;;;0.35;0.35;;;;;;;10.22;100.00;98584.69;4965797;28;20107;-73
2022/11/22 06:26:25;;;;;;;0.60;0.30;;;;;;;10.25;100.00;98582.41;4968644;28;20043;-73
2022/11/22 06:28:53;;;;;;;0.65;0.35;;;;;;;10.17;100.00;98584.88;4970380;28;20051;-72
2022/11/22 06:31:24;;;;;;;0.50;0.35;;;;;;;10.20;100.00;98594.34;4966484;28;20493;-73
2022/11/22 06:33:54;;;;;;;1.20;0.55;;;;;;;10.15;100.00;98597.25;4970585;28;20047;-73
2022/11/22 06:36:24;;;;;;;2.42;0.77;;;;;;;9.97;100.00;98601.97;4962504;28;20405;-73
2022/11/22 06:38:55;;;;;;;1.38;0.75;;;;;;;9.95;100.00;98588.63;4970444;28;20043;-71
2022/11/22 06:41:25;;;;;;;1.10;0.70;;;;;;;9.87;100.00;98579.31;4971961;28;20062;-70
2022/11/22 06:43:56;;;;;;;1.33;0.60;;;;;;;9.85;100.00;98570.66;4972811;28;20051;-71
2022/11/22 06:46:26;;;;;;;0.70;0.47;;;;;;;9.74;100.00;98566.66;4976631;28;20058;-72
2022/11/22 06:48:54;;;;;;;0.43;0.43;;;;;;;9.57;100.00;98535.50;4972804;28;20054;-72
2022/11/22 06:51:24;;;;;;;4.78;0.57;;;;;;;9.48;100.00;98542.91;4970426;28;20050;-73
2022/11/22 06:53:55;;;;;;;5.05;0.60;;;;;;;9.56;100.00;98553.00;4973158;28;20046;-73
2022/11/22 06:56:29;;;;;;;0.40;0.40;;;;;;;9.44;100.00;98550.94;4971818;28;20058;-70
2022/11/22 06:59:02;;;;;;;0.50;0.50;;;;;;;9.24;100.00;98541.47;4953752;28;20066;-74
2022/11/22 07:01:32;;;;;;;0.40;0.40;;;;;;;9.44;100.00;98536.50;4962204;28;20051;-73
2022/11/22 07:04:02;;;;;;;0.60;0.60;;;;;;;9.33;100.00;98522.38;4939915;28;20694;-75
2022/11/22 07:06:33;;;;;;;0.55;0.35;;;;;;;9.29;100.00;98522.19;4970544;28;20050;-73
2022/11/22 07:09:05;;;;;;;0.57;0.50;;;;;;;9.37;100.00;98526.84;4950428;28;20039;-76
2022/11/22 07:11:33;;;;;;;0.93;0.82;;;;;;;9.29;100.00;98522.19;4952292;28;20065;-72
2022/11/22 07:14:04;;;;;;;1.95;0.70;;;;;;;9.10;100.00;98523.31;4953265;28;20402;-73
2022/11/22 07:16:36;;;;;;;0.40;0.40;;;;;;;9.25;100.00;98526.72;4962330;28;20043;-72
2022/11/22 07:19:05;;;;;;;1.33;0.75;;;;;;;9.30;100.00;98525.72;4967017;28;20047;-72
2022/11/22 07:21:36;;;;;;;1.52;1.20;;;;;;;9.31;100.00;98524.59;4956169;28;20081;-74
2022/11/22 07:24:06;;;;;;;2.55;1.00;;;;;;;9.26;100.00;98526.41;4943444;28;20043;-72
2022/11/22 07:26:38;;;;;;;2.40;1.25;;;;;;;9.26;100.00;98522.84;4959815;28;20521;-73
2022/11/22 07:29:06;;;;;;;1.67;1.58;;;;;;;9.42;100.00;98525.88;4959094;28;20070;-73
2022/11/22 07:31:35;;;;;;;1.48;1.38;;;;;;;9.35;100.00;98520.94;4942854;28;20066;-70
2022/11/22 07:34:03;;;;;;;2.08;1.33;;;;;;;9.33;100.00;98525.09;4976592;28;20047;-73
2022/11/22 07:36:31;;;;;;;1.75;1.50;;;;;;;9.28;100.00;98521.41;4976699;28;20054;-73
2022/11/22 07:38:59;;;;;;;2.35;1.38;;;;;;;9.39;100.00;98521.09;4966283;28;20059;-74
2022/11/22 07:41:27;;;;;;;1.40;1.27;;;;;;;9.24;100.00;98512.25;4956375;29;20047;-74
2022/11/22 07:43:55;;;;;;;2.33;1.17;;;;;;;9.27;100.00;98517.06;4957800;28;20047;-74
2022/11/22 07:46:30;;;;;;;3.22;0.93;;;;;;;9.37;100.00;98529.59;4957159;29;20110;-73
2022/11/22 07:49:00;;;;;;;1.80;1.00;;;;;;;9.26;100.00;98533.75;4955911;28;20494;-73
2022/11/22 07:51:28;;;;;;;1.75;1.30;;;;;;;9.28;100.00;98528.78;4956038;28;20051;-73
2022/11/22 07:53:57;;;;;;;1.05;0.80;;;;;;;9.27;100.00;98530.72;4957063;29;20402;-74
2022/11/22 07:56:28;;;;;;;1.25;0.85;;;;;;;9.28;100.00;98526.88;4967403;28;20047;-74
2022/11/22 07:58:56;;;;;;;1.00;0.90;;;;;;;9.46;100.00;98535.03;4974693;28;20062;-74
2022/11/22 08:01:24;;;;;;;1.83;1.15;;;;;;;9.36;100.00;98524.44;4953958;29;20051;-74
2022/11/22 08:03:52;;;;;;;0.98;0.77;;;;;;;9.40;100.00;98533.59;4924183;29;20124;-74
2022/11/22 08:06:21;;;;;;;0.85;0.75;;;;;;;9.31;100.00;98522.69;4939891;29;20058;-74
2022/11/22 08:08:49;;;;;;;1.55;0.93;;;;;;;9.35;100.00;98504.56;4939627;29;20062;-73
2022/11/22 08:11:17;;;;;;;1.02;0.90;;;;;;;9.32;100.00;98513.38;4929423;29;20062;-73
2022/11/22 08:13:45;;;;;;;2.03;1.23;;;;;;;9.37;100.00;98496.81;4968400;28;20070;-74
2022/11/22 08:16:15;;;;;;;1.10;1.00;;;;;;;9.45;100.00;98491.66;4964308;28;20047;-75
2022/11/22 08:18:48;;;;;;;1.55;1.17;;;;;;;9.41;100.00;98486.06;4963112;28;20055;-74
2022/11/22 08:21:17;;;;;;;2.08;1.42;;;;;;;9.57;100.00;98494.53;4972511;28;20054;-73
2022/11/22 08:23:47;;;;;;;2.80;1.90;;;;;;;9.78;100.00;98491.91;4970909;28;20053;-74
2022/11/22 08:26:17;;;;;;;5.57;2.40;;;;;;;9.75;100.00;98483.56;4976290;28;20401;-74
2022/11/22 08:28:45;;;;;;;6.25;2.15;;;;;;;9.82;100.00;98486.59;4976191;28;20053;-74
2022/11/22 08:31:15;;;;;;;3.70;2.40;;;;;;;9.67;100.00;98482.47;4974207;28;20681;-74
2022/11/22 08:33:43;;;;;;;5.28;2.17;;;;;;;9.68;100.00;98484.88;4970125;28;20047;-72
2022/11/22 08:36:11;;;;;;;3.50;1.30;;;;;;;9.71;100.00;98483.44;4976795;28;20486;-73
2022/11/22 08:38:40;;;;;;;1.83;1.15;;;;;;;9.74;100.00;98479.25;4975653;28;20046;-72
2022/11/22 08:41:08;;;;;;;0.95;0.88;;;;;;;9.86;100.00;98479.34;4974502;28;20049;-74
2022/11/22 08:43:37;;;;;;;2.70;1.00;;;;;;;9.82;100.00;98472.94;4975575;28;20058;-72
2022/11/22 08:46:05;;;;;;;1.77;0.85;;;;;;;9.93;100.00;98466.00;4974238;28;20051;-74
2022/11/22 08:48:35;;;;;;;0.82;0.60;;;;;;;9.94;100.00;98459.38;4975055;28;20490;-76
2022/11/22 08:51:05;;;;;;;1.45;1.00;;;;;;;9.94;100.00;98455.88;4974603;28;20074;-72
2022/11/22 08:53:37;;;;;;;0.60;0.55;;;;;;;10.03;100.00;98447.63;4951831;28;20055;-73
2022/11/22 08:56:08;;;;;;;3.25;0.70;;;;;;;9.99;100.00;98443.94;4951986;29;20048;-72
2022/11/22 08:58:37;;;;;;;1.45;0.75;;;;;;;10.02;100.00;98430.44;4954828;29;20051;-72
2022/11/22 09:01:12;;;;;;;1.02;0.90;;;;;;;9.92;100.00;98434.34;4923143;29;20380;-72
2022/11/22 09:03:41;;;;;;;1.60;0.77;;;;;;;9.99;100.00;98422.09;4939315;29;20055;-71
2022/11/22 09:06:12;;;;;;;0.60;0.60;;;;;;;9.91;100.00;98427.28;4953635;29;20058;-74
2022/11/22 09:09:00;;;;;;;1.70;0.90;;;;;;;9.99;99.95;98422.09;4955287;28;20086;-73
2022/11/22 09:11:49;;;;;;;0.73;0.65;;;;;;;10.00;100.00;98412.75;4957961;28;20082;-74
2022/11/22 09:14:17;;;;;;;0.65;0.60;;;;;;;9.91;99.40;98405.41;4974743;28;20167;-72
2022/11/22 09:16:45;;;;;;;1.05;0.77;;;;;;;10.04;99.46;98400.06;4971857;28;20047;-72
2022/11/22 09:19:13;;;;;;;0.82;0.73;;;;;;;9.94;100.00;98391.09;4971690;28;20046;-74
2022/11/22 09:21:41;;;;;;;1.00;0.60;;;;;;;9.93;99.93;98378.56;4986160;28;20043;-73
2022/11/22 09:24:09;;;;;;;0.50;0.45;;;;;;;9.91;100.00;98380.03;4991399;28;20046;-73
2022/11/22 09:26:37;;;;;;;0.90;0.70;;;;;;;9.94;100.00;98374.69;4982509;28;20528;-73
2022/11/22 09:29:05;;;;;;;1.58;0.80;;;;;;;10.00;99.75;98358.09;4969983;28;20055;-72
2022/11/22 09:31:33;;;;;;;2.65;1.23;;;;;;;9.87;99.83;98355.28;4972282;28;20062;-75
2022/11/22 09:34:01;;;;;;;1.58;0.88;;;;;;;10.00;99.63;98358.09;4969266;28;20059;-76
2022/11/22 09:36:29;;;;;;;2.35;1.20;;;;;;;9.92;98.44;98346.13;4973274;28;20047;-75
2022/11/22 09:38:58;;;;;;;1.85;1.13;;;;;;;9.82;98.42;98350.00;4973918;28;20051;-75
2022/11/22 09:41:51;;;;;;;0.90;0.73;;;;;;;10.04;99.71;98351.69;4973619;28;20050;-74
2022/11/22 09:44:55;;;;;;;1.15;0.90;;;;;;;10.09;98.09;98339.75;4973816;28;20058;-73
2022/11/22 09:47:35;;;;;;;2.80;1.10;;;;;;;10.02;98.02;98358.59;4973739;28;20046;-75
2022/11/22 09:50:29;;;;;;;1.08;0.80;;;;;;;9.95;99.74;98353.66;4971974;28;20058;-73
2022/11/22 09:53:23;;;;;;;1.30;1.20;;;;;;;9.87;97.66;98349.03;4974338;28;20394;-75
2022/11/22 09:55:56;;;;;;;1.52;1.35;;;;;;;9.81;99.75;98346.50;4971904;28;20047;-75
2022/11/22 09:58:37;;;;;;;1.95;1.25;;;;;;;9.85;100.00;98345.81;4972290;28;20051;-74
2022/11/22 10:01:27;;;;;;;1.48;1.05;;;;;;;9.81;100.00;98351.97;4954420;28;20054;-74
2022/11/22 10:04:01;;;;;;;1.35;0.30;;;;;;;9.71;93.67;98352.31;4972379;28;20508;-73
2022/11/22 10:06:42;;;;;;;1.27;0.82;;;;;;;9.90;98.62;98359.28;4969655;28;20494;-73
2022/11/22 10:09:32;;;;;;;0.82;0.50;;;;;;;9.93;100.00;98343.03;4953220;28;20051;-73
2022/11/22 10:12:05;;;;;;;2.13;0.82;;;;;;;9.83;99.11;98332.53;4943032;28;20051;-74
2022/11/22 10:14:52;;;;;;;1.75;1.17;;;;;;;9.82;99.73;98322.69;4979854;28;20043;-72
2022/11/22 10:17:23;;;;;;;1.83;1.40;;;;;;;9.87;99.01;98332.66;4970800;28;20050;-73
2022/11/22 10:20:12;;;;;;;2.92;2.20;;;;;;;9.75;98.67;98319.69;4970616;28;20402;-73
2022/11/22 10:22:40;;;;;;;7.28;2.00;;;;;;;9.65;99.82;98313.50;4972242;28;20054;-73
2022/11/22 10:25:20;;;;;;;2.13;1.60;;;;;;;9.61;99.18;98307.06;4980813;28;20039;-73
2022/11/22 10:28:09;;;;;;;2.08;1.40;;;;;;;9.48;100.00;98317.09;4979609;28;20054;-75
2022/11/22 10:30:43;;;;;;;1.73;0.90;;;;;;;9.45;99.46;98328.69;4973620;28;20054;-76
2022/11/22 10:33:17;;;;;;;3.53;0.90;;;;;;;9.54;99.68;98320.47;4972599;28;20062;-76
2022/11/22 10:36:15;;;;;;;2.15;1.65;;;;;;;9.54;100.00;98329.44;4987804;28;20042;-76
2022/11/22 10:38:57;;;;;;;3.25;1.88;;;;;;;9.62;99.92;98343.38;4973387;28;20058;-76
2022/11/22 10:41:30;;;;;;;3.50;2.42;;;;;;;9.44;100.00;98323.53;4973337;28;20047;-77
2022/11/22 10:44:35;;;;;;;1.58;1.48;;;;;;;9.28;100.00;98319.44;4972381;28;20051;-77
2022/11/22 10:47:28;;;;;;;2.20;1.42;;;;;;;9.40;99.53;98309.75;4972426;28;20062;-77
2022/11/22 10:50:21;;;;;;;0.77;0.77;;;;;;;9.32;100.00;98291.47;4972929;28;20055;-76
2022/11/22 10:52:55;;;;;;;0.80;0.73;;;;;;;9.37;100.00;98297.56;4943303;28;20057;-76
2022/11/22 10:55:42;;;;;;;;;;;;;;;9.41;100.00;98298.50;4971782;28;20053;-76
2022/11/22 10:58:19;;;;;;;0.90;0.57;;;;;;;9.32;100.00;98299.66;4973009;28;19926;-76
2022/11/22 11:00:56;;;;;;;2.22;1.38;;;;;;;9.38;100.00;98292.88;4971850;28;20074;-76
2022/11/22 11:03:34;;;;;;;1.42;1.30;;;;;;;9.28;100.00;98280.41;4973311;28;20058;-76
2022/11/22 11:06:06;;;;;;;1.88;1.27;;;;;;;9.53;100.00;98286.06;4973306;28;20054;-76
2022/11/22 11:09:00;;;;;;;4.28;1.95;;;;;;;9.55;100.00;98276.41;4973223;28;20042;-76
2022/11/22 11:11:51;;;;;;;3.67;2.45;;;;;;;9.57;100.00;98265.16;4953757;28;20052;-76
2022/11/22 11:14:33;;;;;;;1.60;1.50;;;;;;;9.46;100.00;98259.28;4953730;28;20051;-75
2022/11/22 11:17:02;;;;;;;1.95;1.27;;;;;;;9.51;100.00;98256.38;4953882;29;20498;-75
2022/11/22 11:19:36;;;;;;;2.05;0.90;;;;;;;9.59;98.58;98251.19;4953867;28;20415;-76
2022/11/22 11:22:07;;;;;;;;;;;;;;;9.59;99.46;98257.47;4954195;29;20070;-75
2022/11/22 11:24:40;;;;;;;3.08;2.75;;;;;;;9.57;98.94;98248.78;4967365;28;19922;-76
2022/11/22 11:27:10;;;;;;;4.13;3.50;;;;;;;9.64;99.54;98245.53;4970123;28;20047;-77
2022/11/22 11:30:00;;;;;;;2.47;2.28;;;;;;;9.49;100.00;98242.25;4972430;28;20058;-77
2022/11/22 11:32:50;;;;;;;2.47;1.80;;;;;;;9.60;99.58;98259.06;4969934;28;20058;-78
2022/11/22 11:35:21;;;;;;;2.00;1.40;;;;;;;9.71;99.11;98258.66;4965935;28;20075;-77
2022/11/22 11:37:49;;;;;;;2.40;1.83;;;;;;;9.65;99.41;98250.69;4971456;28;20062;-78
2022/11/22 11:40:28;;;;;;;2.50;0.95;;;;;;;9.51;98.98;98258.31;4973190;28;20050;-78
2022/11/22 11:43:18;;;;;;;2.35;1.58;;;;;;;9.56;98.83;98247.19;4968547;28;20490;-75
2022/11/22 11:45:49;;;;;;;1.33;1.08;;;;;;;9.69;98.96;98267.19;4965280;28;20050;-76
2022/11/22 11:48:27;;;;;;;2.00;0.90;;;;;;;9.67;97.85;98277.63;4957264;28;20062;-76
2022/11/22 11:51:11;;;;;;;1.88;1.02;;;;;;;9.76;98.67;98286.59;4975524;28;20063;-74
2022/11/22 11:54:00;;;;;;;3.35;0.88;;;;;;;9.62;98.17;98292.28;4980822;28;20052;-74
2022/11/22 11:56:44;;;;;;;0.60;0.60;;;;;;;9.74;99.11;98299.78;4969634;28;20054;-76
2022/11/22 11:59:16;;;;;;;2.08;0.75;;;;;;;9.65;98.41;98299.84;4970423;28;20054;-76
2022/11/22 12:02:05;;;;;;;1.33;0.75;;;;;;;9.71;98.54;98302.34;4968862;28;20054;-76
2022/11/22 12:04:47;;;;;;;0.93;0.60;;;;;;;9.69;99.26;98305.44;4967508;28;20051;-74
2022/11/22 12:07:17;;;;;;;0.50;0.50;;;;;;;9.72;98.64;98309.44;4974627;28;20803;-74
2022/11/22 12:09:48;;;;;;;0.47;0.43;;;;;;;9.85;98.41;98313.84;4975468;28;20050;-74